Terminal Aerodrome Forecast
Issued by NWS Twin Cities, MN

Home | Current Version | Previous Version | Text Only | Print | Product List | Glossary Off
Versions: 1 2 3 4 5 6 7 8 9 10 11 12 13 14 15 16

000
FTUS43 KMPX 210200 AAA
TAFEAU
TAF AMD
KEAU 210200Z 2102/2124 29009KT P6SM SCT020 BKN045
     FM210800 29007KT P6SM BKN015
     FM211500 34009KT P6SM -RA OVC020
     FM211800 35010KT P6SM BKN035=

USA.gov is the U.S. government's official web portal to all federal, state and local government web resources and services.